Time;durP1;ratioP1;P1;durP2;ratioP2;P2;SDS_P1;SDS_P2;PMS_P1;PMS_P2;Temp;Humidity;BMP_temperature;BMP_pressure;BME280_temperature;BME280_humidity;BME280_pressure;Samples;Min_cycle;Max_cycle;Signal;HPM_P1;HPM_P2
2022/08/03 00:01:42;;;;;;;6.28;2.30;;;;;;;20.71;62.79;92894.88;5040520;28;20048;-75
2022/08/03 00:04:09;;;;;;;6.25;2.45;;;;;;;20.70;62.56;92892.56;5041706;28;20044;-75
2022/08/03 00:06:35;;;;;;;5.93;2.50;;;;;;;20.69;62.77;92897.13;5050171;28;20519;-75
2022/08/03 00:09:01;;;;;;;4.00;2.38;;;;;;;20.66;62.94;92892.47;5033159;28;20040;-75
2022/08/03 00:11:27;;;;;;;5.55;2.40;;;;;;;20.67;62.54;92895.91;5047748;28;20034;-75
2022/08/03 00:13:52;;;;;;;5.05;2.40;;;;;;;20.65;62.57;92890.94;5044299;28;20120;-74
2022/08/03 00:16:18;;;;;;;5.75;2.28;;;;;;;20.65;62.34;92890.13;5013624;28;20036;-74
2022/08/03 00:18:44;;;;;;;5.57;2.50;;;;;;;20.65;62.45;92895.47;5031294;28;20021;-75
2022/08/03 00:21:10;;;;;;;4.25;2.38;;;;;;;20.64;62.58;92899.25;5019817;28;20756;-75
2022/08/03 00:23:36;;;;;;;8.02;2.60;;;;;;;20.63;62.32;92887.84;5015059;28;20037;-75
2022/08/03 00:26:02;;;;;;;5.63;2.47;;;;;;;20.61;62.41;92895.38;5050846;28;20262;-75
2022/08/03 00:28:28;;;;;;;5.40;2.47;;;;;;;20.58;62.30;92886.19;5011461;28;20041;-74
2022/08/03 00:30:54;;;;;;;4.53;2.20;;;;;;;20.56;62.68;92893.72;4997111;28;20045;-75
2022/08/03 00:33:21;;;;;;;7.45;2.42;;;;;;;20.51;63.08;92891.28;5013202;28;20471;-74
2022/08/03 00:35:47;;;;;;;6.20;2.30;;;;;;;20.48;62.93;92881.31;5013119;28;20033;-74
2022/08/03 00:38:12;;;;;;;6.57;3.08;;;;;;;20.45;63.07;92883.88;5015858;28;20037;-75
2022/08/03 00:40:38;;;;;;;5.82;2.40;;;;;;;20.42;63.01;92887.22;5013382;28;20202;-75
2022/08/03 00:43:05;;;;;;;6.47;2.53;;;;;;;20.37;63.35;92886.31;5030199;28;20463;-75
2022/08/03 00:45:34;;;;;;;4.35;2.53;;;;;;;20.33;63.51;92882.03;5016451;28;20536;-75
2022/08/03 00:48:00;;;;;;;4.95;2.45;;;;;;;20.30;63.18;92885.38;5032791;28;20552;-75
2022/08/03 00:50:29;;;;;;;4.78;2.70;;;;;;;20.25;63.55;92882.94;5028219;28;20489;-75
2022/08/03 00:52:57;;;;;;;6.65;2.35;;;;;;;20.22;63.81;92888.91;5050452;28;20090;-75
2022/08/03 00:55:23;;;;;;;6.53;2.58;;;;;;;20.22;63.38;92886.25;5050471;28;20033;-75
2022/08/03 00:57:50;;;;;;;6.10;2.28;;;;;;;20.21;63.26;92887.38;5031361;28;20530;-75
2022/08/03 01:00:19;;;;;;;4.45;2.35;;;;;;;20.20;63.31;92880.50;5042271;28;20128;-75
2022/08/03 01:02:45;;;;;;;6.68;2.40;;;;;;;20.17;63.74;92879.28;5016173;28;20036;-75
2022/08/03 01:05:11;;;;;;;4.90;2.28;;;;;;;20.13;64.06;92881.09;5022605;28;20112;-75
2022/08/03 01:08:00;;;;;;;4.30;2.30;;;;;;;20.11;64.04;92873.47;5030732;28;20080;-75
2022/08/03 01:10:44;;;;;;;4.80;2.70;;;;;;;20.10;64.39;92871.13;5032663;28;20026;-75
2022/08/03 01:13:19;;;;;;;5.63;2.63;;;;;;;20.06;64.83;92871.03;5021449;28;20057;-75
2022/08/03 01:16:06;;;;;;;5.18;2.30;;;;;;;20.10;64.78;92866.56;5032588;28;20037;-74
2022/08/03 01:18:40;;;;;;;4.45;2.45;;;;;;;20.04;65.10;92873.25;5015347;28;20116;-75
2022/08/03 01:21:18;;;;;;;4.40;2.55;;;;;;;20.03;64.70;92866.38;5019189;28;20033;-75
2022/08/03 01:23:53;;;;;;;5.07;2.40;;;;;;;20.02;64.47;92862.19;5032639;28;20048;-75
2022/08/03 01:26:56;;;;;;;4.38;2.50;;;;;;;20.02;64.27;92859.53;5052106;28;20128;-75
2022/08/03 01:29:52;;;;;;;5.97;2.38;;;;;;;20.01;64.57;92857.97;5039117;28;20071;-75
2022/08/03 01:32:32;;;;;;;5.65;2.47;;;;;;;20.01;64.59;92857.97;5036221;28;20143;-75
2022/08/03 01:35:07;;;;;;;5.65;2.50;;;;;;;19.99;64.66;92860.19;5054426;28;20040;-74
2022/08/03 01:37:41;;;;;;;8.18;2.40;;;;;;;19.95;64.41;92854.00;5035892;28;20025;-75
2022/08/03 01:40:08;;;;;;;5.25;2.50;;;;;;;19.94;64.50;92853.22;5054016;28;20443;-74
2022/08/03 01:42:35;;;;;;;7.07;2.28;;;;;;;19.93;64.58;92854.34;5036023;28;20037;-75
2022/08/03 01:45:02;;;;;;;5.97;2.45;;;;;;;19.92;64.74;92850.13;5036202;28;20514;-74
2022/08/03 01:47:29;;;;;;;6.07;2.42;;;;;;;19.91;64.28;92847.81;5036219;28;20052;-75
2022/08/03 01:49:57;;;;;;;4.60;2.75;;;;;;;19.87;64.59;92841.63;5035962;28;20564;-75
2022/08/03 01:52:23;;;;;;;4.93;2.45;;;;;;;19.85;64.85;92838.53;5035574;28;20057;-75
2022/08/03 01:54:52;;;;;;;6.85;2.55;;;;;;;19.85;64.63;92833.97;5053600;28;20087;-75
2022/08/03 01:57:19;;;;;;;5.72;2.30;;;;;;;19.84;64.25;92831.69;5034995;28;20457;-74
2022/08/03 01:59:49;;;;;;;5.32;2.30;;;;;;;19.81;64.32;92838.41;5037657;28;20071;-75
2022/08/03 02:02:16;;;;;;;4.63;2.17;;;;;;;19.80;64.02;92828.13;5053668;28;20078;-75
2022/08/03 02:04:44;;;;;;;7.35;2.60;;;;;;;19.80;64.18;92838.75;5036701;28;20075;-75
2022/08/03 02:07:10;;;;;;;4.57;2.33;;;;;;;19.78;64.08;92833.00;5045153;28;20081;-75
2022/08/03 02:09:39;;;;;;;4.13;2.20;;;;;;;19.75;64.11;92834.44;5007219;28;20037;-75
2022/08/03 02:12:12;;;;;;;4.95;2.50;;;;;;;19.74;64.23;92831.00;5035512;28;20449;-75
2022/08/03 02:14:40;;;;;;;5.05;2.42;;;;;;;19.72;64.08;92835.91;5044638;28;20024;-75
2022/08/03 02:17:07;;;;;;;5.57;2.47;;;;;;;19.71;63.79;92839.66;5025013;28;20033;-75
2022/08/03 02:19:34;;;;;;;4.30;2.28;;;;;;;19.67;63.98;92830.75;5035783;28;20058;-74
2022/08/03 02:22:01;;;;;;;4.18;2.25;;;;;;;19.60;64.26;92827.13;5035547;28;20037;-74
2022/08/03 02:24:28;;;;;;;4.00;2.47;;;;;;;19.59;64.23;92836.97;5051133;28;20037;-74
2022/08/03 02:26:55;;;;;;;3.50;2.33;;;;;;;19.60;63.73;92838.53;5051443;28;20021;-75
2022/08/03 02:29:25;;;;;;;4.35;2.38;;;;;;;19.60;63.72;92833.22;5035160;28;20048;-75
2022/08/03 02:31:54;;;;;;;4.13;2.30;;;;;;;19.60;63.77;92832.44;5052976;28;20124;-74
2022/08/03 02:34:23;;;;;;;5.00;2.70;;;;;;;19.59;63.77;92833.53;5052833;28;20028;-75
2022/08/03 02:36:52;;;;;;;4.53;2.20;;;;;;;19.59;63.49;92836.97;5052768;28;20533;-74
2022/08/03 02:39:20;;;;;;;4.05;2.28;;;;;;;19.56;63.61;92833.09;5052796;28;20033;-75
2022/08/03 02:41:51;;;;;;;8.48;2.47;;;;;;;19.54;63.91;92835.34;5052252;28;20524;-75
2022/08/03 02:44:24;;;;;;;4.32;2.40;;;;;;;19.53;63.77;92833.75;5051530;28;20498;-74
2022/08/03 02:46:54;;;;;;;4.25;2.30;;;;;;;19.53;63.89;92830.34;5050081;28;20126;-74
2022/08/03 02:49:21;;;;;;;8.25;3.15;;;;;;;19.53;64.04;92833.75;5052162;28;20039;-75
2022/08/03 02:51:48;;;;;;;5.20;2.35;;;;;;;19.51;64.38;92835.97;5052659;28;20025;-75
2022/08/03 02:54:17;;;;;;;3.95;2.40;;;;;;;19.49;64.47;92837.41;5004381;28;20037;-74
2022/08/03 02:56:45;;;;;;;5.18;2.65;;;;;;;19.46;64.29;92833.56;5020954;28;20045;-75
2022/08/03 02:59:13;;;;;;;5.90;2.60;;;;;;;19.45;64.42;92844.50;5032511;28;20045;-75
2022/08/03 03:01:38;;;;;;;6.25;2.42;;;;;;;19.45;64.78;92841.84;5031359;28;20041;-75
2022/08/03 03:04:06;;;;;;;6.78;2.58;;;;;;;19.42;65.21;92837.22;5032383;28;20094;-75
2022/08/03 03:06:32;;;;;;;10.40;3.03;;;;;;;19.40;65.05;92837.53;5014712;28;20029;-74
2022/08/03 03:08:59;;;;;;;4.68;2.40;;;;;;;19.37;65.44;92835.56;5014565;28;20036;-75
2022/08/03 03:11:25;;;;;;;8.95;2.58;;;;;;;19.35;65.76;92837.75;5031062;28;20052;-75
2022/08/03 03:13:52;;;;;;;6.47;2.42;;;;;;;19.33;65.82;92832.00;4997232;28;20531;-74
2022/08/03 03:16:18;;;;;;;5.13;2.35;;;;;;;19.32;65.69;92828.59;5011102;28;20065;-75
2022/08/03 03:18:46;;;;;;;4.05;2.30;;;;;;;19.33;65.85;92834.66;5027726;28;20174;-75
2022/08/03 03:21:13;;;;;;;4.53;2.45;;;;;;;19.30;66.38;92827.38;5026667;28;20108;-74
2022/08/03 03:23:40;;;;;;;5.97;2.50;;;;;;;19.28;66.08;92835.66;5012279;28;20049;-75
2022/08/03 03:26:07;;;;;;;4.90;2.33;;;;;;;19.27;66.38;92831.47;5010932;28;20041;-75
2022/08/03 03:28:37;;;;;;;4.20;2.22;;;;;;;19.26;66.33;92829.13;5012445;28;20029;-75
2022/08/03 03:31:05;;;;;;;7.53;2.15;;;;;;;19.23;66.41;92827.91;5013134;28;20029;-75
2022/08/03 03:33:32;;;;;;;3.50;2.20;;;;;;;19.20;66.06;92836.53;5013802;28;20052;-75
2022/08/03 03:35:58;;;;;;;5.10;2.42;;;;;;;19.18;66.36;92828.13;5024916;28;20114;-75
2022/08/03 03:38:24;;;;;;;3.72;2.25;;;;;;;19.18;66.56;92830.78;5030605;28;20049;-75
2022/08/03 03:40:50;;;;;;;7.25;2.40;;;;;;;19.15;66.52;92828.78;5029067;28;20040;-75
2022/08/03 03:43:17;;;;;;;7.53;2.30;;;;;;;19.14;66.62;92830.69;5030641;28;20034;-75
2022/08/03 03:45:44;;;;;;;4.82;2.13;;;;;;;19.12;66.70;92832.13;5031241;28;20038;-75
2022/08/03 03:48:10;;;;;;;5.88;2.50;;;;;;;19.10;66.55;92826.34;5003811;28;20045;-75
2022/08/03 03:50:36;;;;;;;8.32;2.53;;;;;;;19.09;66.13;92828.25;5013016;28;20037;-75
2022/08/03 03:53:03;;;;;;;6.13;2.40;;;;;;;19.09;66.57;92824.78;5016934;28;20041;-74
2022/08/03 03:55:29;;;;;;;4.28;2.30;;;;;;;19.07;66.48;92832.31;5019675;28;20526;-75
2022/08/03 03:57:55;;;;;;;4.65;2.45;;;;;;;19.07;66.73;92840.28;5033489;28;20052;-74
2022/08/03 04:00:22;;;;;;;3.88;2.47;;;;;;;19.06;66.25;92830.78;5033330;28;20070;-75
2022/08/03 04:02:47;;;;;;;4.22;2.20;;;;;;;19.05;66.55;92827.34;5016866;28;20545;-75
2022/08/03 04:11:28;;;;;;;4.05;2.35;;;;;;;19.01;66.07;92831.75;5053837;28;20033;-74
2022/08/03 04:13:57;;;;;;;5.78;2.22;;;;;;;19.02;65.92;92832.53;5035604;28;20040;-75
2022/08/03 04:16:30;;;;;;;4.13;2.25;;;;;;;19.03;66.13;92826.13;5030773;28;20364;-74
2022/08/03 04:19:07;;;;;;;4.70;2.10;;;;;;;19.01;66.34;92837.06;5024454;28;20091;-75
2022/08/03 04:21:36;;;;;;;7.10;2.20;;;;;;;19.01;66.16;92839.72;5048493;28;20037;-75
2022/08/03 04:24:06;;;;;;;7.20;2.20;;;;;;;19.04;65.90;92839.06;5029153;28;20471;-74
2022/08/03 04:26:36;;;;;;;5.20;2.15;;;;;;;19.03;65.67;92839.41;5050705;28;20056;-74
2022/08/03 04:29:04;;;;;;;7.65;2.30;;;;;;;19.05;65.63;92834.50;5050988;28;20060;-75
2022/08/03 04:31:30;;;;;;;4.13;2.25;;;;;;;19.06;65.75;92831.53;5032940;28;20041;-75
2022/08/03 04:33:56;;;;;;;4.20;2.17;;;;;;;19.09;65.38;92833.56;5032227;28;20367;-75
2022/08/03 04:36:25;;;;;;;4.88;2.22;;;;;;;19.12;65.42;92837.41;5047474;28;20056;-75
2022/08/03 04:39:00;;;;;;;3.83;2.20;;;;;;;19.16;65.70;92846.25;5050740;28;20052;-75
2022/08/03 04:41:27;;;;;;;10.63;2.22;;;;;;;19.17;66.01;92842.50;5050963;28;20111;-75
2022/08/03 04:43:57;;;;;;;3.78;2.17;;;;;;;19.19;66.56;92848.25;5031222;28;20086;-75
2022/08/03 04:46:27;;;;;;;4.03;2.20;;;;;;;19.20;66.46;92847.13;5050466;28;20045;-74
2022/08/03 04:48:53;;;;;;;4.40;2.22;;;;;;;19.23;66.52;92849.16;5050410;28;20037;-75
2022/08/03 04:51:19;;;;;;;6.38;2.40;;;;;;;19.26;66.31;92851.13;5050575;28;20044;-75
2022/08/03 04:53:45;;;;;;;4.85;2.33;;;;;;;19.32;66.00;92855.13;5032722;28;20045;-74
2022/08/03 04:56:11;;;;;;;6.22;2.40;;;;;;;19.38;66.18;92852.25;5032514;28;20413;-74
2022/08/03 04:58:36;;;;;;;5.13;2.70;;;;;;;19.43;66.96;92852.00;5050479;28;20075;-75
2022/08/03 05:01:02;;;;;;;5.68;2.50;;;;;;;19.47;66.79;92856.31;5008812;28;20040;-75
2022/08/03 05:03:27;;;;;;;7.30;3.05;;;;;;;19.53;67.13;92851.59;5049864;28;20037;-74
2022/08/03 05:05:54;;;;;;;5.68;2.70;;;;;;;19.57;67.71;92857.78;5034316;28;20028;-74
2022/08/03 05:08:20;;;;;;;4.07;2.35;;;;;;;19.64;67.60;92859.88;5051492;28;20339;-75
2022/08/03 05:10:46;;;;;;;5.53;2.65;;;;;;;19.69;67.51;92863.09;5046480;28;20064;-74
2022/08/03 05:13:12;;;;;;;5.65;2.70;;;;;;;19.74;67.60;92862.88;5029539;28;20075;-74
2022/08/03 05:15:38;;;;;;;6.38;2.90;;;;;;;19.82;67.85;92863.09;5049483;28;20475;-74
2022/08/03 05:18:04;;;;;;;5.00;3.00;;;;;;;19.88;67.82;92862.53;5054465;28;20104;-74
2022/08/03 05:20:30;;;;;;;6.40;3.20;;;;;;;19.95;68.36;92859.31;5033790;28;20178;-73
2022/08/03 05:22:56;;;;;;;7.05;3.17;;;;;;;20.03;68.84;92865.59;5028776;28;20056;-75
2022/08/03 05:25:22;;;;;;;4.80;2.80;;;;;;;20.07;69.49;92861.94;5035380;28;20037;-76
2022/08/03 05:27:48;;;;;;;8.95;3.08;;;;;;;20.15;69.71;92869.03;5050300;28;20441;-78
2022/08/03 05:30:14;;;;;;;4.72;3.00;;;;;;;20.20;68.84;92865.34;5052583;28;20064;-76
2022/08/03 05:32:39;;;;;;;6.32;3.38;;;;;;;20.28;68.89;92867.09;5036259;28;20509;-75
2022/08/03 05:35:05;;;;;;;6.15;3.10;;;;;;;20.37;68.53;92862.41;5054554;28;20111;-75
2022/08/03 05:37:31;;;;;;;8.43;3.10;;;;;;;20.46;68.91;92866.81;5019651;28;20103;-76
2022/08/03 05:39:56;;;;;;;5.15;2.88;;;;;;;20.53;68.24;92870.44;5034838;28;20032;-76
2022/08/03 05:42:22;;;;;;;4.65;2.88;;;;;;;20.65;67.58;92871.53;5034413;28;20083;-76
2022/08/03 05:44:48;;;;;;;6.60;2.80;;;;;;;20.75;67.12;92868.38;5041962;28;20055;-76
2022/08/03 05:47:14;;;;;;;4.07;2.60;;;;;;;20.88;66.68;92871.75;5035570;28;20045;-76
2022/08/03 05:49:39;;;;;;;5.95;2.90;;;;;;;21.01;66.47;92867.94;5054217;28;20033;-76
2022/08/03 05:52:05;;;;;;;5.47;2.75;;;;;;;21.15;66.40;92875.50;5019849;28;20041;-76
2022/08/03 05:54:30;;;;;;;5.38;2.50;;;;;;;21.30;65.45;92872.06;5053031;28;20045;-76
2022/08/03 05:56:56;;;;;;;7.22;2.95;;;;;;;21.42;64.54;92869.34;5052757;28;20502;-76
2022/08/03 05:59:21;;;;;;;5.22;2.65;;;;;;;21.56;63.99;92862.81;5033281;28;20041;-76
2022/08/03 06:01:47;;;;;;;7.13;2.83;;;;;;;21.71;63.54;92864.69;5014799;28;20045;-76
2022/08/03 06:04:13;;;;;;;5.53;2.63;;;;;;;21.88;62.96;92866.19;5014685;28;20032;-76
2022/08/03 06:06:38;;;;;;;5.72;3.08;;;;;;;22.06;61.31;92863.91;5032435;28;20110;-76
2022/08/03 06:09:04;;;;;;;5.28;3.00;;;;;;;22.59;61.74;92874.94;5021003;28;20063;-76
2022/08/03 06:11:30;;;;;;;6.25;2.80;;;;;;;23.18;59.26;92866.88;5043357;28;20022;-76
2022/08/03 06:13:55;;;;;;;6.03;3.60;;;;;;;23.78;55.84;92869.78;5003939;28;20037;-76
2022/08/03 06:16:21;;;;;;;5.28;3.17;;;;;;;24.03;54.18;92872.03;5032399;28;20090;-77
2022/08/03 06:18:46;;;;;;;5.80;3.20;;;;;;;23.98;54.23;92872.34;5030665;28;20056;-76
2022/08/03 06:21:12;;;;;;;6.35;3.00;;;;;;;24.20;54.04;92870.72;5049978;28;20068;-77
2022/08/03 06:23:38;;;;;;;6.07;3.30;;;;;;;24.89;51.39;92881.16;5014474;28;20116;-77
2022/08/03 06:26:04;;;;;;;6.07;3.10;;;;;;;25.22;49.08;92884.94;5029418;28;20017;-77
2022/08/03 06:28:30;;;;;;;7.03;3.03;;;;;;;25.52;49.20;92882.16;5021513;28;20131;-76
2022/08/03 06:30:55;;;;;;;5.07;2.80;;;;;;;25.99;48.98;92888.69;5030311;28;20133;-76
2022/08/03 06:33:21;;;;;;;4.32;2.80;;;;;;;26.54;48.15;92887.84;5046035;28;20176;-77
2022/08/03 06:35:46;;;;;;;7.85;3.00;;;;;;;26.80;47.21;92876.09;5052020;28;20041;-77
2022/08/03 06:38:12;;;;;;;4.95;2.97;;;;;;;27.09;45.90;92886.91;5052739;28;20063;-77
2022/08/03 06:40:40;;;;;;;5.53;3.10;;;;;;;27.81;43.93;92877.81;5034361;28;20037;-77
2022/08/03 06:43:06;;;;;;;4.38;2.85;;;;;;;27.45;44.99;92882.41;5031395;28;20032;-76
2022/08/03 06:45:34;;;;;;;4.63;2.90;;;;;;;27.15;47.54;92890.75;5051531;28;20386;-77
2022/08/03 06:48:00;;;;;;;8.48;2.80;;;;;;;27.31;47.97;92887.75;5017946;28;20087;-77
2022/08/03 06:50:26;;;;;;;4.80;2.67;;;;;;;26.66;49.00;92886.75;5043560;28;20037;-77
2022/08/03 06:52:52;;;;;;;4.70;2.90;;;;;;;25.93;50.57;92890.16;4989508;28;1139520;-77
2022/08/03 06:55:17;;;;;;;8.55;3.42;;;;;;;25.71;51.21;92899.94;5050623;28;20098;-76
2022/08/03 06:57:43;;;;;;;5.47;2.95;;;;;;;25.53;52.85;92889.84;5045324;28;20124;-76
2022/08/03 07:00:10;;;;;;;7.47;3.35;;;;;;;25.44;54.25;92896.63;5013715;28;20048;-76
2022/08/03 07:02:36;;;;;;;8.18;3.30;;;;;;;25.20;53.73;92897.97;5027845;28;20033;-75
2022/08/03 07:05:02;;;;;;;11.10;3.30;;;;;;;24.85;54.09;92904.44;5014957;28;20038;-76
2022/08/03 07:07:28;;;;;;;5.90;3.28;;;;;;;24.63;54.32;92904.19;5034248;28;20048;-76
2022/08/03 07:09:53;;;;;;;6.78;3.35;;;;;;;24.47;56.01;92903.56;5033413;28;20029;-76
2022/08/03 07:12:19;;;;;;;6.68;3.20;;;;;;;24.63;56.74;92904.19;5000692;28;20483;-76
2022/08/03 07:14:45;;;;;;;7.00;3.30;;;;;;;24.57;56.89;92908.31;5032085;28;20029;-76
2022/08/03 07:17:10;;;;;;;8.82;3.40;;;;;;;24.47;57.19;92909.72;5034360;28;20066;-76
2022/08/03 07:19:36;;;;;;;4.70;3.00;;;;;;;24.50;58.28;92908.25;5034386;28;20037;-76
2022/08/03 07:22:02;;;;;;;5.72;3.20;;;;;;;24.47;58.41;92917.75;5033860;28;20505;-76
2022/08/03 07:24:28;;;;;;;5.00;3.13;;;;;;;24.76;57.24;92918.09;5019625;28;20040;-77
2022/08/03 07:26:54;;;;;;;5.32;3.15;;;;;;;24.91;56.39;92925.16;5042760;28;20045;-76
2022/08/03 07:29:20;;;;;;;7.60;3.47;;;;;;;24.89;56.44;92916.72;5034419;28;20041;-76
2022/08/03 07:31:45;;;;;;;6.95;3.42;;;;;;;24.77;56.06;92913.50;5051788;28;20031;-75
2022/08/03 07:34:11;;;;;;;6.75;3.53;;;;;;;24.76;56.18;92915.41;5042259;28;20427;-76
2022/08/03 07:36:37;;;;;;;8.40;3.28;;;;;;;24.85;56.66;92926.63;5025627;28;20045;-76
2022/08/03 07:39:03;;;;;;;5.88;3.28;;;;;;;24.92;56.55;92925.94;5051556;28;20033;-76
2022/08/03 07:41:29;;;;;;;9.20;3.47;;;;;;;25.02;55.65;92925.28;5051307;28;20082;-76
2022/08/03 07:43:54;;;;;;;6.15;4.28;;;;;;;24.67;53.34;92926.41;5050871;28;20522;-76
2022/08/03 07:46:20;;;;;;;7.20;3.72;;;;;;;25.02;53.42;92936.00;5043826;28;20037;-76
2022/08/03 07:48:45;;;;;;;5.88;3.33;;;;;;;25.03;54.41;92932.19;5027144;28;20533;-75
2022/08/03 07:51:11;;;;;;;8.65;3.83;;;;;;;25.05;54.95;92919.19;5033569;28;20163;-75
2022/08/03 07:53:36;;;;;;;8.23;3.70;;;;;;;25.09;53.90;92929.97;5051524;28;20052;-76
2022/08/03 07:56:02;;;;;;;12.30;3.70;;;;;;;25.08;54.78;92929.19;5051710;28;20087;-74
2022/08/03 07:58:27;;;;;;;8.70;3.67;;;;;;;25.19;55.62;92928.56;5051571;28;20045;-73
2022/08/03 08:00:53;;;;;;;5.38;3.40;;;;;;;25.21;54.16;92931.63;5051371;28;20067;-73
2022/08/03 08:03:20;;;;;;;9.07;3.50;;;;;;;25.43;52.72;92933.38;5033619;28;20041;-74
2022/08/03 08:05:46;;;;;;;5.68;3.58;;;;;;;25.33;51.43;92929.47;5051370;28;20548;-73
2022/08/03 08:08:12;;;;;;;6.97;3.42;;;;;;;25.66;50.56;92924.41;5051253;28;20048;-74
2022/08/03 08:10:38;;;;;;;5.22;3.30;;;;;;;25.91;50.44;92930.75;5033611;28;20498;-73
2022/08/03 08:13:03;;;;;;;6.82;3.30;;;;;;;26.09;51.18;92924.75;5017076;28;20537;-74
2022/08/03 08:15:29;;;;;;;6.40;3.13;;;;;;;26.35;50.30;92931.84;5051248;28;20049;-73
2022/08/03 08:17:57;;;;;;;5.13;3.28;;;;;;;26.02;51.02;92922.78;5050550;28;20098;-74
2022/08/03 08:20:28;;;;;;;5.53;3.15;;;;;;;25.64;51.54;92927.44;5031236;28;20041;-74
2022/08/03 08:22:56;;;;;;;5.00;3.55;;;;;;;25.74;51.71;92931.38;5031541;28;20399;-74
2022/08/03 08:25:22;;;;;;;7.32;3.33;;;;;;;25.64;52.08;92929.38;5013462;28;20083;-74
2022/08/03 08:27:49;;;;;;;6.15;3.58;;;;;;;25.79;50.69;92928.34;4997165;28;20041;-74
2022/08/03 08:30:17;;;;;;;8.95;4.15;;;;;;;25.76;50.97;92932.53;5031120;28;20050;-74
2022/08/03 08:32:43;;;;;;;8.00;3.33;;;;;;;25.75;51.30;92932.91;5013409;28;20048;-74
2022/08/03 08:35:10;;;;;;;7.78;3.95;;;;;;;25.84;50.45;92925.31;5030994;28;20045;-73
2022/08/03 08:37:36;;;;;;;7.40;3.80;;;;;;;25.79;50.38;92925.66;5031502;28;20041;-74
2022/08/03 08:40:03;;;;;;;4.90;3.30;;;;;;;25.88;51.48;92930.75;5013349;28;20503;-74
2022/08/03 08:42:31;;;;;;;10.00;3.50;;;;;;;25.66;50.30;92933.22;5030972;28;20434;-74
2022/08/03 08:44:56;;;;;;;6.30;3.53;;;;;;;26.01;48.92;92923.16;5030958;28;20029;-74
2022/08/03 08:47:24;;;;;;;4.65;3.17;;;;;;;26.00;48.36;92927.00;5030775;28;20569;-73
2022/08/03 08:49:53;;;;;;;8.32;3.78;;;;;;;25.90;46.72;92921.19;5031119;28;20124;-74
2022/08/03 08:52:30;;;;;;;6.00;3.53;;;;;;;26.03;48.58;92926.25;4996969;28;20039;-73
2022/08/03 08:54:58;;;;;;;8.77;3.20;;;;;;;25.96;48.73;92930.44;5030849;28;20033;-74
2022/08/03 08:57:36;;;;;;;5.68;3.03;;;;;;;26.01;47.32;92928.53;5013197;28;20042;-74
2022/08/03 09:00:08;;;;;;;7.38;3.35;;;;;;;25.80;47.93;92921.06;5013216;28;20099;-73
2022/08/03 09:02:34;;;;;;;;;;;;;;;25.96;47.57;92935.00;5031037;28;20120;-73
2022/08/03 09:05:00;;;;;;;4.85;2.53;;;;;;;26.11;46.22;92927.84;5012748;28;20011;-74
2022/08/03 09:07:27;;;;;;;6.15;3.03;;;;;;;26.28;46.51;92929.88;5030719;28;20041;-74
2022/08/03 09:09:52;;;;;;;8.52;2.90;;;;;;;25.95;44.67;92931.56;5030742;28;20038;-74
2022/08/03 09:12:18;;;;;;;5.45;2.65;;;;;;;26.23;46.79;92934.81;5030756;28;20033;-73
2022/08/03 09:14:44;;;;;;;4.45;3.05;;;;;;;26.31;44.88;92936.41;5013075;28;20095;-74
2022/08/03 09:17:10;;;;;;;5.63;2.88;;;;;;;26.55;46.40;92932.38;5013198;28;20045;-74
2022/08/03 09:19:35;;;;;;;5.53;2.88;;;;;;;26.28;44.60;92943.28;5030692;28;20076;-74
2022/08/03 09:22:17;;;;;;;5.55;2.65;;;;;;;26.67;45.09;92934.72;4996843;28;20051;-74
2022/08/03 09:25:00;;;;;;;4.32;2.58;;;;;;;26.77;43.64;92938.59;5012882;28;20117;-73
2022/08/03 09:27:25;;;;;;;7.00;2.80;;;;;;;26.78;44.31;92932.09;5013116;28;20120;-74
2022/08/03 09:29:53;;;;;;;4.90;2.45;;;;;;;26.71;43.55;92927.44;5012952;28;20108;-74
2022/08/03 09:32:21;;;;;;;4.05;2.78;;;;;;;26.63;44.80;92925.09;5030876;28;20406;-74
2022/08/03 09:34:48;;;;;;;5.88;2.75;;;;;;;26.78;45.46;92926.72;5012787;28;20036;-73
2022/08/03 09:37:16;;;;;;;4.20;2.65;;;;;;;27.17;45.19;92934.13;5012985;28;20049;-74
2022/08/03 09:39:42;;;;;;;4.18;2.95;;;;;;;27.56;44.75;92928.88;5012732;28;20530;-74
2022/08/03 09:42:10;;;;;;;7.60;2.70;;;;;;;27.78;42.96;92931.59;5030446;28;20128;-74
2022/08/03 09:44:40;;;;;;;4.90;2.50;;;;;;;27.73;43.57;92927.34;5012722;28;20734;-74
2022/08/03 09:47:09;;;;;;;7.28;3.65;;;;;;;27.67;42.20;92936.19;5031645;28;20047;-74
2022/08/03 09:49:35;;;;;;;5.47;2.70;;;;;;;27.99;42.82;92930.88;5034109;28;20021;-74
2022/08/03 09:52:12;;;;;;;4.68;2.70;;;;;;;28.24;41.69;92926.22;5016217;28;20029;-75
2022/08/03 09:54:38;;;;;;;3.88;2.60;;;;;;;27.89;41.94;92927.00;5033769;28;20048;-74
2022/08/03 09:57:03;;;;;;;5.45;2.63;;;;;;;27.98;40.16;92924.69;5033832;28;20045;-75
2022/08/03 09:59:32;;;;;;;5.25;2.55;;;;;;;27.84;41.68;92922.00;5034118;28;20052;-74
2022/08/03 10:02:01;;;;;;;7.43;2.88;;;;;;;27.62;42.78;92916.59;5034187;28;20499;-74
2022/08/03 10:04:27;;;;;;;3.65;2.60;;;;;;;27.49;42.75;92922.72;5016483;28;20057;-73
2022/08/03 10:07:08;;;;;;;3.70;2.50;;;;;;;27.65;42.41;92916.97;4999696;28;20025;-74
2022/08/03 10:09:35;;;;;;;4.95;2.45;;;;;;;27.60;43.62;92926.94;5033660;28;20037;-74
2022/08/03 10:12:09;;;;;;;4.68;2.58;;;;;;;27.92;40.79;92920.09;5016159;28;20037;-74
2022/08/03 10:14:40;;;;;;;4.63;2.58;;;;;;;27.96;40.98;92913.53;5016041;28;20061;-74
2022/08/03 10:17:08;;;;;;;4.20;2.47;;;;;;;27.86;39.95;92911.66;5033570;28;20037;-74
2022/08/03 10:19:33;;;;;;;5.68;2.75;;;;;;;27.66;40.75;92915.84;5033510;28;20017;-75
2022/08/03 10:22:25;;;;;;;4.57;2.50;;;;;;;27.54;41.24;92915.06;5015691;28;20041;-74
2022/08/03 10:25:10;;;;;;;3.88;2.30;;;;;;;27.52;39.78;92909.28;5004592;28;20052;-74
2022/08/03 10:27:38;;;;;;;4.80;2.42;;;;;;;27.55;41.47;92905.81;5015790;28;20041;-74
2022/08/03 10:30:06;;;;;;;5.45;2.50;;;;;;;27.62;39.53;92910.44;5015434;28;20041;-74
2022/08/03 10:32:51;;;;;;;5.78;2.45;;;;;;;27.58;40.12;92899.69;5033286;28;20030;-74
2022/08/03 10:35:20;;;;;;;7.63;2.72;;;;;;;27.77;39.75;92897.78;5033339;28;20040;-74
2022/08/03 10:37:58;;;;;;;4.93;2.55;;;;;;;27.82;40.22;92894.69;5033208;28;20030;-74
2022/08/03 10:40:28;;;;;;;4.25;2.83;;;;;;;27.79;39.83;92887.41;5033088;28;20044;-74
2022/08/03 10:42:57;;;;;;;4.10;2.38;;;;;;;27.54;40.28;92900.84;5015432;28;20102;-75
2022/08/03 10:45:25;;;;;;;5.35;2.63;;;;;;;27.25;40.81;92886.59;5032960;28;20055;-74
2022/08/03 10:47:52;;;;;;;3.97;2.40;;;;;;;27.01;42.03;92883.44;4998943;28;20072;-74
2022/08/03 10:50:21;;;;;;;4.78;2.45;;;;;;;27.48;40.93;92888.94;5015298;28;20042;-74
2022/08/03 10:53:05;;;;;;;5.20;2.90;;;;;;;27.40;41.30;92886.25;5015028;28;20566;-74
2022/08/03 10:58:43;;;;;;;6.07;2.90;;;;;;;27.53;41.24;92881.25;5031733;28;20056;-74
2022/08/03 11:01:10;;;;;;;5.53;3.17;;;;;;;27.78;41.51;92883.16;4998665;28;20048;-74
2022/08/03 11:03:51;;;;;;;7.22;3.10;;;;;;;27.17;41.86;92881.16;5032538;28;20029;-74
2022/08/03 11:06:19;;;;;;;4.60;2.70;;;;;;;27.60;42.33;92883.94;5014975;28;20037;-73
2022/08/03 11:08:46;;;;;;;5.03;3.03;;;;;;;27.88;41.43;92887.81;5032588;28;20388;-74
2022/08/03 11:11:17;;;;;;;5.13;2.92;;;;;;;28.02;40.68;92881.66;5014911;28;20048;-74
2022/08/03 11:13:58;;;;;;;4.10;2.70;;;;;;;28.00;40.32;92873.97;5032441;28;20061;-74
2022/08/03 11:16:26;;;;;;;8.13;3.00;;;;;;;28.08;40.68;92868.56;5014774;28;20040;-74
2022/08/03 11:18:59;;;;;;;6.15;2.80;;;;;;;28.08;39.73;92866.66;5014725;28;20272;-74
2022/08/03 11:21:52;;;;;;;5.05;3.20;;;;;;;27.99;39.81;92864.38;5032410;28;20557;-74
2022/08/03 11:24:36;;;;;;;4.38;3.00;;;;;;;28.18;39.77;92857.03;5014582;28;20080;-74
2022/08/03 11:27:32;;;;;;;4.30;2.70;;;;;;;28.15;39.46;92865.88;4998609;28;20343;-75
2022/08/03 11:30:09;;;;;;;5.20;3.13;;;;;;;27.70;39.76;92860.91;5012675;28;20053;-74
2022/08/03 11:32:46;;;;;;;4.72;2.70;;;;;;;27.40;41.29;92864.75;5014852;28;20045;-74
2022/08/03 11:35:15;;;;;;;6.35;3.33;;;;;;;27.47;40.59;92857.81;5014203;28;20069;-74
2022/08/03 11:37:53;;;;;;;5.03;3.15;;;;;;;27.86;41.02;92847.09;5031935;28;20037;-74
2022/08/03 11:40:40;;;;;;;4.85;3.15;;;;;;;28.05;40.66;92853.97;5014215;28;20044;-74
2022/08/03 11:43:29;;;;;;;5.25;3.13;;;;;;;28.42;39.88;92855.44;5014175;28;20029;-74
2022/08/03 11:46:05;;;;;;;8.25;2.80;;;;;;;28.56;40.52;92857.34;5001194;28;20448;-75
2022/08/03 11:48:37;;;;;;;4.55;3.13;;;;;;;28.58;40.18;92855.78;5014263;28;20071;-75
2022/08/03 11:51:06;;;;;;;;;;;;;;;28.54;39.61;92849.63;5032124;28;20467;-76